Time;durP1;ratioP1;P1;durP2;ratioP2;P2;SDS_P1;SDS_P2;PMS_P1;PMS_P2;Temp;Humidity;BMP_temperature;BMP_pressure;BME280_temperature;BME280_humidity;BME280_pressure;Samples;Min_cycle;Max_cycle;Signal;HPM_P1;HPM_P2
2022/03/14 00:01:24;;;;;;;19.32;12.03;;;;;;;-1.13;59.87;102091.23;3529273;79;21007;-68
2022/03/14 00:06:17;;;;;;;18.62;11.10;;;;;;;-1.16;59.74;102088.44;3517468;79;21053;-68
2022/03/14 00:11:10;;;;;;;18.62;10.25;;;;;;;-1.17;59.93;102088.80;3552778;79;21623;-68
2022/03/14 00:16:03;;;;;;;17.67;10.85;;;;;;;-1.21;59.79;102089.30;3518302;79;21066;-68
2022/03/14 00:20:55;;;;;;;16.60;11.28;;;;;;;-1.24;60.13;102080.09;3487824;79;22142;-68
2022/03/14 00:25:49;;;;;;;19.73;11.60;;;;;;;-1.25;60.27;102082.52;3587948;78;21491;-68
2022/03/14 00:30:42;;;;;;;17.62;10.98;;;;;;;-1.28;60.22;102084.44;3526100;78;20931;-68
2022/03/14 00:35:34;;;;;;;19.87;10.88;;;;;;;-1.32;60.33;102077.28;3552441;79;20900;-68
2022/03/14 00:40:27;;;;;;;18.85;11.40;;;;;;;-1.33;60.39;102081.86;3527689;78;20979;-68
2022/03/14 00:45:24;;;;;;;16.35;11.20;;;;;;;-1.37;60.44;102079.81;3560678;78;21022;-68
2022/03/14 00:50:14;;;;;;;17.40;10.68;;;;;;;-1.39;60.66;102078.80;3508614;78;20973;-68
2022/03/14 00:55:07;;;;;;;16.23;9.35;;;;;;;-1.41;60.74;102081.59;3517959;77;21512;-68
2022/03/14 00:59:59;;;;;;;18.55;10.90;;;;;;;-1.43;60.67;102088.19;3529384;78;20979;-68
2022/03/14 01:04:51;;;;;;;19.50;11.00;;;;;;;-1.45;60.72;102079.52;3565518;78;22203;-67
2022/03/14 01:09:44;;;;;;;17.02;10.93;;;;;;;-1.48;60.82;102075.45;3533708;78;21597;-68
2022/03/14 01:14:37;;;;;;;15.75;10.03;;;;;;;-1.50;60.84;102069.28;3539634;78;20951;-68
2022/03/14 01:19:29;;;;;;;18.20;10.72;;;;;;;-1.51;61.02;102072.62;3589590;77;21387;-68
2022/03/14 01:24:24;;;;;;;16.90;10.35;;;;;;;-1.57;60.93;102071.31;3551948;77;21723;-68
2022/03/14 01:29:17;;;;;;;18.23;10.15;;;;;;;-1.62;61.05;102080.22;3532443;78;21006;-68
2022/03/14 01:34:10;;;;;;;17.40;9.65;;;;;;;-1.66;61.09;102072.15;3569618;77;20961;-68
2022/03/14 01:39:04;;;;;;;20.72;10.72;;;;;;;-1.66;61.17;102073.06;3585931;78;20967;-67
2022/03/14 01:43:56;;;;;;;17.57;9.93;;;;;;;-1.73;61.29;102069.47;3555853;78;21003;-68
2022/03/14 01:48:48;;;;;;;15.08;10.10;;;;;;;-1.75;61.27;102076.09;3544672;79;20948;-67
2022/03/14 01:53:43;;;;;;;18.85;9.03;;;;;;;-1.75;61.37;102067.16;3558436;77;21061;-68
2022/03/14 01:58:36;;;;;;;17.87;10.32;;;;;;;-1.81;61.29;102071.70;3516239;78;21666;-68
2022/03/14 02:03:29;;;;;;;17.15;9.95;;;;;;;-1.85;61.45;102073.48;3586205;78;21461;-67
2022/03/14 02:08:21;;;;;;;15.53;9.30;;;;;;;-1.90;61.67;102075.99;3591380;78;21481;-68
2022/03/14 02:13:16;;;;;;;15.43;9.18;;;;;;;-1.95;61.72;102080.67;3541810;78;21026;-68
2022/03/14 02:18:08;;;;;;;16.73;9.45;;;;;;;-1.95;61.84;102088.31;3535945;78;21231;-68
2022/03/14 02:23:01;;;;;;;16.70;10.30;;;;;;;-2.01;61.65;102092.50;3564300;78;21417;-67
2022/03/14 02:27:54;;;;;;;16.93;10.30;;;;;;;-2.02;62.08;102093.27;3587720;78;21464;-67
2022/03/14 02:32:46;;;;;;;13.18;9.68;;;;;;;-2.05;62.13;102095.54;3516686;78;20912;-67
2022/03/14 02:37:40;;;;;;;17.05;10.13;;;;;;;-2.08;62.24;102095.25;3522949;79;21008;-67
2022/03/14 02:42:36;;;;;;;18.27;9.15;;;;;;;-2.11;62.21;102098.80;3511041;77;21491;-68
2022/03/14 02:47:29;;;;;;;15.28;9.48;;;;;;;-2.10;62.39;102106.97;3492631;79;20956;-67
2022/03/14 02:52:21;;;;;;;18.40;9.88;;;;;;;-2.11;62.47;102107.71;3498490;79;21030;-67
2022/03/14 02:57:16;;;;;;;15.50;10.03;;;;;;;-2.16;62.53;102106.04;3549081;79;21268;-68
2022/03/14 03:02:10;;;;;;;15.45;9.68;;;;;;;-2.15;62.74;102106.92;3516438;79;21618;-68
2022/03/14 03:07:03;;;;;;;17.32;10.50;;;;;;;-2.19;62.79;102108.69;3547957;77;21713;-67
2022/03/14 03:11:55;;;;;;;15.35;9.68;;;;;;;-2.21;62.70;102116.58;3512260;79;20987;-67
2022/03/14 03:16:48;;;;;;;14.07;9.75;;;;;;;-2.25;62.82;102113.21;3500397;77;20990;-67
2022/03/14 03:21:43;;;;;;;18.30;9.98;;;;;;;-2.30;63.04;102112.42;3563867;78;21010;-67
2022/03/14 03:26:38;;;;;;;20.72;11.35;;;;;;;-2.31;63.04;102110.66;3493853;80;20967;-67
2022/03/14 03:31:30;;;;;;;15.40;9.88;;;;;;;-2.34;62.98;102125.66;3482622;80;21892;-68
2022/03/14 03:36:22;;;;;;;16.42;9.90;;;;;;;-2.36;63.07;102122.08;3504578;79;20935;-67
2022/03/14 03:41:14;;;;;;;16.90;10.45;;;;;;;-2.34;63.34;102125.66;3446870;79;22054;-67
2022/03/14 03:46:07;;;;;;;16.27;10.25;;;;;;;-2.36;63.43;102123.34;3531996;79;21575;-68
2022/03/14 03:50:59;;;;;;;16.60;9.78;;;;;;;-2.39;63.47;102121.78;3450780;79;21010;-67
2022/03/14 03:55:51;;;;;;;16.97;11.20;;;;;;;-2.44;63.55;102125.56;3512176;79;20936;-67
2022/03/14 04:00:43;;;;;;;19.10;11.08;;;;;;;-2.43;63.59;102132.45;3536775;79;20979;-67
2022/03/14 04:05:39;;;;;;;16.15;10.30;;;;;;;-2.42;63.66;102130.41;3462515;79;20979;-68
2022/03/14 04:10:30;;;;;;;18.00;10.38;;;;;;;-2.45;63.69;102136.52;3479208;79;20998;-68
2022/03/14 04:15:23;;;;;;;16.35;10.13;;;;;;;-2.51;63.67;102141.03;3540073;79;20936;-67
2022/03/14 04:20:16;;;;;;;18.12;9.68;;;;;;;-2.53;63.90;102133.63;3504650;79;20941;-67
2022/03/14 04:25:11;;;;;;;18.07;10.13;;;;;;;-2.53;63.99;102129.81;3524626;78;21033;-67
2022/03/14 04:30:05;;;;;;;20.88;10.88;;;;;;;-2.58;63.83;102134.47;3483617;79;20943;-67
2022/03/14 04:34:57;;;;;;;18.23;10.35;;;;;;;-2.63;63.85;102138.63;3462552;78;21034;-68
2022/03/14 04:39:49;;;;;;;17.90;10.68;;;;;;;-2.66;63.94;102143.06;3509161;79;21448;-68
2022/03/14 04:44:42;;;;;;;18.40;10.18;;;;;;;-2.70;64.06;102147.33;3398757;79;21472;-68
2022/03/14 04:49:34;;;;;;;20.43;10.35;;;;;;;-2.69;64.02;102151.30;3411403;79;20956;-67
2022/03/14 04:54:27;;;;;;;17.77;11.90;;;;;;;-2.71;63.85;102155.74;3459093;79;20966;-67
2022/03/14 04:59:19;;;;;;;21.25;12.18;;;;;;;-2.72;64.21;102167.59;3515585;79;20987;-67
2022/03/14 05:04:11;;;;;;;17.98;11.25;;;;;;;-2.72;63.97;102173.95;3452923;79;21700;-67
2022/03/14 05:09:05;;;;;;;16.23;11.05;;;;;;;-2.74;63.76;102177.09;3495715;79;22178;-67
2022/03/14 05:13:57;;;;;;;18.75;11.33;;;;;;;-2.77;63.58;102182.80;3486929;79;21425;-67
2022/03/14 05:18:50;;;;;;;21.27;11.85;;;;;;;-2.76;63.91;102182.03;3484254;79;20943;-68
2022/03/14 05:23:42;;;;;;;23.67;12.43;;;;;;;-2.74;63.67;102188.16;3475349;78;21054;-68
2022/03/14 05:28:35;;;;;;;20.45;10.72;;;;;;;-2.69;64.12;102184.40;3444908;79;22270;-68
2022/03/14 05:33:28;;;;;;;16.55;10.63;;;;;;;-2.64;64.07;102191.59;3522528;78;21714;-68
2022/03/14 05:38:22;;;;;;;21.17;10.10;;;;;;;-2.59;64.13;102198.91;3583528;78;22064;-68
2022/03/14 05:43:14;;;;;;;19.02;10.88;;;;;;;-2.52;63.97;102200.39;3538347;79;20959;-68
2022/03/14 05:48:06;;;;;;;18.32;10.23;;;;;;;-2.38;64.29;102197.47;3501500;77;20936;-68
2022/03/14 05:52:59;;;;;;;19.07;10.85;;;;;;;-2.26;64.45;102209.53;3462360;79;20904;-68
2022/03/14 05:57:52;;;;;;;20.90;11.57;;;;;;;-2.17;64.42;102210.38;3528819;79;22286;-69
2022/03/14 06:02:48;;;;;;;17.90;12.10;;;;;;;-2.05;64.46;102212.78;3512870;77;20967;-68
2022/03/14 06:07:40;;;;;;;23.02;12.13;;;;;;;-1.98;64.33;102201.11;3566631;78;21042;-68
2022/03/14 06:12:32;;;;;;;21.65;11.30;;;;;;;-1.83;64.46;102205.81;3546633;78;21125;-68
2022/03/14 06:17:25;;;;;;;18.35;10.65;;;;;;;-1.64;64.59;102205.44;3571999;77;20991;-69
2022/03/14 06:22:23;;;;;;;16.77;9.83;;;;;;;-1.49;64.46;102206.30;3571094;78;21829;-68
2022/03/14 06:27:21;;;;;;;27.10;11.35;;;;;;;-1.33;64.28;102209.84;3594312;77;21013;-68
2022/03/14 06:32:15;;;;;;;20.43;11.28;;;;;;;-1.19;64.27;102200.47;3558082;78;20932;-69
2022/03/14 06:37:07;;;;;;;20.10;11.12;;;;;;;-1.09;64.03;102201.80;3549281;77;21128;-68
2022/03/14 06:42:01;;;;;;;19.10;10.08;;;;;;;-0.89;64.06;102199.70;3555348;77;20951;-68
2022/03/14 06:46:54;;;;;;;18.85;11.65;;;;;;;-0.54;63.66;102203.49;3566906;77;21082;-69
2022/03/14 06:51:47;;;;;;;20.50;12.05;;;;;;;-0.27;63.52;102197.27;3545878;78;20955;-68
2022/03/14 06:56:41;;;;;;;19.00;11.35;;;;;;;-0.08;63.17;102199.72;3546283;78;20978;-68
2022/03/14 07:01:34;;;;;;;18.82;11.38;;;;;;;0.15;62.92;102205.47;3575245;78;21436;-69
2022/03/14 07:06:26;;;;;;;17.70;10.05;;;;;;;0.41;62.71;102197.75;3631939;77;21014;-68
2022/03/14 07:11:20;;;;;;;22.52;12.53;;;;;;;0.65;62.44;102200.14;3589995;78;20986;-68
2022/03/14 07:16:12;;;;;;;20.60;11.75;;;;;;;0.90;61.60;102196.60;3421008;81;21027;-68
2022/03/14 07:21:05;;;;;;;27.02;13.98;;;;;;;0.95;61.31;102201.70;3432320;82;20981;-69
2022/03/14 07:25:57;;;;;;;26.15;13.60;;;;;;;1.09;61.24;102204.98;3462351;80;20931;-68
2022/03/14 07:30:49;;;;;;;19.10;11.80;;;;;;;1.22;60.74;102218.36;3480196;81;21027;-69
2022/03/14 07:35:41;;;;;;;20.52;11.85;;;;;;;1.42;60.75;102218.63;3368918;80;20956;-68
2022/03/14 07:40:34;;;;;;;16.77;11.88;;;;;;;1.58;60.22;102214.71;3434574;80;20995;-69
2022/03/14 07:45:27;;;;;;;19.12;11.85;;;;;;;2.37;58.94;102218.95;3411313;80;21021;-69
2022/03/14 07:50:19;;;;;;;23.12;13.30;;;;;;;2.99;58.43;102217.50;3455596;80;21175;-69
2022/03/14 07:55:12;;;;;;;19.30;15.48;;;;;;;4.52;56.59;102205.61;3399407;82;21003;-70
2022/03/14 08:00:10;;;;;;;18.52;15.50;;;;;;;10.03;50.89;102200.89;3500756;80;22059;-70
2022/03/14 08:05:07;;;;;;;16.07;14.20;;;;;;;13.95;46.58;102191.95;3433991;81;21078;-68
2022/03/14 08:10:02;;;;;;;17.52;15.58;;;;;;;15.76;43.03;102184.76;3385356;81;21011;-68
2022/03/14 08:14:54;;;;;;;16.30;14.70;;;;;;;17.89;40.72;102172.11;3383943;80;20987;-68
2022/03/14 08:19:46;;;;;;;18.07;14.98;;;;;;;16.72;40.19;102176.76;3437347;80;20936;-68
2022/03/14 08:24:38;;;;;;;16.75;14.95;;;;;;;16.60;38.82;102172.63;3440982;81;20996;-69
2022/03/14 08:29:32;;;;;;;16.80;15.05;;;;;;;19.73;35.56;102153.92;3514966;80;21042;-68
2022/03/14 08:34:26;;;;;;;17.23;15.53;;;;;;;18.65;34.53;102163.97;3423168;80;21507;-70
2022/03/14 08:39:18;;;;;;;18.15;16.25;;;;;;;19.91;33.10;102154.83;3471423;80;21088;-68
2022/03/14 08:44:11;;;;;;;17.52;15.65;;;;;;;19.65;33.27;102160.89;3469964;80;21152;-69
2022/03/14 08:49:04;;;;;;;22.02;16.32;;;;;;;15.95;34.83;102175.51;3450913;80;20937;-68
2022/03/14 08:53:56;;;;;;;18.48;15.58;;;;;;;15.82;34.75;102180.05;3479195;79;20961;-68
2022/03/14 08:58:50;;;;;;;17.60;15.32;;;;;;;14.42;35.27;102177.88;3471978;81;21592;-68
2022/03/14 09:03:43;;;;;;;17.90;16.00;;;;;;;13.53;35.33;102167.70;3449205;80;20971;-68
2022/03/14 09:08:36;;;;;;;20.40;16.00;;;;;;;13.43;35.34;102164.36;3424651;80;21355;-68
2022/03/14 09:13:29;;;;;;;20.92;16.40;;;;;;;12.91;35.98;102162.37;3493352;78;21125;-68
2022/03/14 09:18:22;;;;;;;17.57;15.32;;;;;;;13.12;34.92;102163.45;3485421;78;21515;-69
2022/03/14 09:23:20;;;;;;;17.42;15.60;;;;;;;13.81;34.58;102162.81;3465466;78;20955;-69
2022/03/14 09:28:14;;;;;;;19.32;17.42;;;;;;;15.18;33.43;102158.66;3334993;83;21267;-69
2022/03/14 09:33:06;;;;;;;17.25;15.48;;;;;;;15.24;33.32;102154.88;3391594;81;20979;-69
2022/03/14 09:37:59;;;;;;;19.05;17.05;;;;;;;16.09;32.92;102143.37;3403534;82;21019;-71
2022/03/14 09:42:55;;;;;;;18.52;15.88;;;;;;;17.50;32.00;102132.22;3371677;81;21013;-70
2022/03/14 09:47:58;;;;;;;18.07;16.23;;;;;;;16.91;31.70;102140.27;3360581;81;21528;-71
2022/03/14 09:52:54;;;;;;;18.90;16.90;;;;;;;18.60;30.60;102135.39;3372443;81;21019;-68
2022/03/14 09:57:48;;;;;;;18.82;17.02;;;;;;;19.13;28.93;102123.82;3368960;83;20958;-70
2022/03/14 10:02:43;;;;;;;17.07;15.38;;;;;;;21.09;28.20;102125.59;3394498;81;20971;-69
2022/03/14 10:07:36;;;;;;;18.33;16.63;;;;;;;22.56;26.80;102116.61;3291465;83;20955;-70
2022/03/14 10:12:29;;;;;;;17.55;15.90;;;;;;;22.21;26.21;102120.02;3388792;82;21114;-70
2022/03/14 10:17:21;;;;;;;19.30;16.37;;;;;;;22.81;26.27;102124.70;3328236;82;21557;-69
2022/03/14 10:22:18;;;;;;;17.32;15.58;;;;;;;24.25;25.33;102118.67;3346345;82;20990;-69
2022/03/14 10:27:12;;;;;;;16.97;15.28;;;;;;;24.97;24.68;102113.75;3475640;80;21175;-69
2022/03/14 10:32:19;;;;;;;17.25;15.63;;;;;;;25.81;23.85;102111.00;3484231;80;20958;-67
2022/03/14 10:37:11;;;;;;;16.87;15.38;;;;;;;25.93;22.77;102114.70;3512479;80;21003;-68
2022/03/14 10:42:07;;;;;;;16.65;15.18;;;;;;;25.88;22.96;102110.80;3473756;80;20991;-68
2022/03/14 10:47:05;;;;;;;16.12;14.70;;;;;;;25.07;22.94;102112.19;3426402;80;21480;-69
2022/03/14 10:52:06;;;;;;;17.92;16.32;;;;;;;25.39;22.92;102094.66;3499089;79;20988;-69
2022/03/14 10:57:15;;;;;;;16.32;14.73;;;;;;;25.83;22.26;102102.05;3428212;80;21418;-69
2022/03/14 11:02:17;;;;;;;16.45;14.95;;;;;;;25.59;22.07;102091.98;3488260;80;20938;-69
2022/03/14 11:07:10;;;;;;;22.55;17.20;;;;;;;25.34;22.09;102096.55;3528772;80;21193;-68
2022/03/14 11:12:08;;;;;;;17.32;14.50;;;;;;;25.71;22.09;102090.36;3440047;80;20991;-69
2022/03/14 11:17:20;;;;;;;15.80;14.20;;;;;;;25.92;21.94;102085.42;3482948;80;21248;-68
2022/03/14 11:22:15;;;;;;;22.90;15.87;;;;;;;25.56;21.78;102078.30;3486403;80;34031;-68
2022/03/14 11:27:16;;;;;;;19.30;15.63;;;;;;;26.60;21.31;102077.83;3513191;78;21032;-68
2022/03/14 11:32:10;;;;;;;16.57;14.98;;;;;;;26.06;21.24;102069.98;3561029;78;20924;-68
2022/03/14 11:37:04;;;;;;;15.13;13.72;;;;;;;25.74;21.41;102058.77;3573258;77;21022;-68
2022/03/14 11:41:58;;;;;;;16.42;14.70;;;;;;;25.06;21.16;102067.89;3504031;77;21823;-67
2022/03/14 11:46:54;;;;;;;15.38;13.88;;;;;;;24.27;21.87;102061.95;3483528;77;21504;-66
2022/03/14 11:51:48;;;;;;;17.77;14.80;;;;;;;23.89;21.95;102052.88;3588368;78;20982;-66
2022/03/14 11:56:57;;;;;;;15.65;14.05;;;;;;;23.52;21.93;102053.48;3587762;78;20940;-66
2022/03/14 12:01:50;;;;;;;17.07;14.45;;;;;;;22.68;21.89;102052.86;3555067;78;21424;-67
2022/03/14 12:06:52;;;;;;;16.62;14.38;;;;;;;21.14;23.69;102055.05;3592298;77;21807;-66
2022/03/14 12:11:44;;;;;;;15.45;13.80;;;;;;;20.15;24.51;102054.48;3591674;78;20987;-67
2022/03/14 12:16:44;;;;;;;16.73;13.72;;;;;;;19.01;24.92;102050.42;3465487;78;20963;-67
2022/03/14 12:21:52;;;;;;;15.78;13.20;;;;;;;17.93;25.75;102050.23;3588192;79;20990;-67
2022/03/14 12:26:44;;;;;;;15.98;13.15;;;;;;;17.18;26.15;102044.25;3563896;78;20994;-68
2022/03/14 12:31:37;;;;;;;20.20;14.38;;;;;;;16.62;27.16;102034.37;3575926;78;21607;-67
2022/03/14 12:36:32;;;;;;;16.80;14.07;;;;;;;16.29;27.17;102033.03;3537624;78;21010;-67
2022/03/14 12:41:25;;;;;;;16.35;14.58;;;;;;;15.81;27.49;102026.20;3575658;78;20998;-68
2022/03/14 12:46:17;;;;;;;16.15;12.28;;;;;;;15.56;27.81;102011.34;3591827;78;20994;-67
2022/03/14 12:51:09;;;;;;;15.50;13.90;;;;;;;15.58;28.46;102013.98;3559305;78;20940;-68
2022/03/14 12:56:12;;;;;;;16.20;12.80;;;;;;;15.54;28.21;102016.08;3589679;77;21794;-69
2022/03/14 13:01:10;;;;;;;19.50;16.60;;;;;;;15.43;28.04;102015.89;3559834;77;20971;-68
2022/03/14 13:06:05;;;;;;;22.70;15.63;;;;;;;15.25;28.66;102016.05;3539331;77;22080;-68
2022/03/14 13:11:02;;;;;;;17.35;14.28;;;;;;;15.17;28.97;102012.39;3559608;78;21485;-67
2022/03/14 13:16:12;;;;;;;18.75;14.15;;;;;;;15.21;28.87;102006.34;3571770;78;20943;-67
2022/03/14 13:21:23;;;;;;;17.32;12.15;;;;;;;15.17;29.03;102008.89;3579727;77;21209;-68
2022/03/14 13:26:20;;;;;;;18.23;14.20;;;;;;;14.96;28.82;101996.27;3579916;77;20990;-67
2022/03/14 13:31:12;;;;;;;21.70;14.73;;;;;;;14.74;29.25;101998.46;3571135;77;21651;-70
2022/03/14 13:36:09;;;;;;;16.55;12.93;;;;;;;14.71;29.48;101993.16;3522032;78;20920;-70
2022/03/14 13:41:17;;;;;;;19.48;13.25;;;;;;;14.45;29.58;101997.40;3519088;79;26947;-69
2022/03/14 13:46:34;;;;;;;16.45;13.45;;;;;;;14.41;29.71;102001.22;3573070;77;21848;-70
2022/03/14 13:51:35;;;;;;;17.87;13.90;;;;;;;14.19;29.79;101997.25;3531041;78;20955;-70
2022/03/14 13:56:38;;;;;;;16.30;13.90;;;;;;;14.17;30.20;101997.21;3537071;77;21026;-69
2022/03/14 14:01:46;;;;;;;19.00;13.62;;;;;;;14.14;30.41;101991.03;3555385;78;20889;-69
2022/03/14 14:06:46;;;;;;;19.50;15.48;;;;;;;14.04;30.57;101992.53;3530380;78;20973;-69
2022/03/14 14:11:38;;;;;;;20.43;15.88;;;;;;;13.84;30.64;101994.69;3488596;79;21138;-69
2022/03/14 14:16:36;;;;;;;19.40;15.30;;;;;;;13.80;30.89;101997.65;3540964;77;20995;-69
2022/03/14 14:21:29;;;;;;;19.30;14.53;;;;;;;13.69;31.02;101981.71;3596736;78;21429;-70
2022/03/14 14:26:32;;;;;;;21.95;14.43;;;;;;;13.40;31.13;101986.66;3493538;78;20999;-70
2022/03/14 14:31:25;;;;;;;17.60;14.07;;;;;;;13.41;31.56;102001.47;3575735;77;21501;-70
2022/03/14 14:36:18;;;;;;;18.17;13.93;;;;;;;13.32;31.64;101989.95;3582039;77;21019;-70
2022/03/14 14:41:13;;;;;;;18.60;13.90;;;;;;;13.27;31.71;101990.22;3499323;78;20959;-70
2022/03/14 14:46:07;;;;;;;17.62;13.80;;;;;;;13.20;31.94;101991.30;3472494;77;20951;-70
2022/03/14 14:51:02;;;;;;;19.75;13.98;;;;;;;12.99;32.14;101988.59;3528372;78;20940;-69
2022/03/14 14:56:00;;;;;;;20.65;13.45;;;;;;;12.81;32.39;101996.80;3503331;77;20919;-69
2022/03/14 15:00:51;;;;;;;19.20;13.78;;;;;;;12.79;32.54;102003.70;3545704;77;21003;-69
2022/03/14 15:05:50;;;;;;;17.62;13.32;;;;;;;12.72;32.66;102008.28;3509621;77;21548;-69
2022/03/14 15:10:39;;;;;;;18.57;13.53;;;;;;;12.70;33.01;102002.14;3525875;78;20967;-69
2022/03/14 15:15:32;;;;;;;19.27;13.48;;;;;;;12.55;33.14;102000.82;3536111;78;20928;-69
2022/03/14 15:20:25;;;;;;;20.30;12.90;;;;;;;12.48;33.44;102001.48;3487667;78;20924;-69
2022/03/14 15:25:18;;;;;;;17.32;13.68;;;;;;;12.35;33.66;101999.36;3549662;78;21026;-69
2022/03/14 15:30:13;;;;;;;15.18;13.38;;;;;;;12.14;33.81;102003.09;3552351;78;20931;-69
2022/03/14 15:35:09;;;;;;;18.30;12.70;;;;;;;11.92;34.15;102004.55;3486447;78;20926;-69
2022/03/14 15:40:08;;;;;;;16.55;11.38;;;;;;;11.60;34.67;102010.86;3522165;77;20979;-69
2022/03/14 15:45:00;;;;;;;36.58;16.62;;;;;;;11.21;35.14;102016.47;3551144;77;20998;-69
2022/03/14 15:49:52;;;;;;;29.65;12.28;;;;;;;10.87;35.62;102023.06;3457475;77;21792;-69
2022/03/14 15:54:44;;;;;;;26.85;12.25;;;;;;;10.53;36.29;102019.20;3522700;78;20963;-69
2022/03/14 15:59:36;;;;;;;16.45;11.75;;;;;;;10.13;36.54;102019.36;3589750;78;20987;-68
2022/03/14 16:04:30;;;;;;;13.22;10.30;;;;;;;9.75;37.17;102016.98;3522853;78;22154;-67
2022/03/14 16:09:23;;;;;;;21.62;11.30;;;;;;;9.38;37.71;102018.03;3501107;78;20986;-68
2022/03/14 16:14:18;;;;;;;25.82;12.25;;;;;;;9.07;38.21;102027.52;3559098;78;21844;-68
2022/03/14 16:19:10;;;;;;;23.05;12.07;;;;;;;8.75;38.68;102034.31;3527414;78;21081;-68
2022/03/14 16:24:06;;;;;;;19.27;11.60;;;;;;;8.42;39.17;102025.86;3596647;78;21014;-68
2022/03/14 16:28:58;;;;;;;18.27;12.25;;;;;;;8.15;39.63;102028.89;3537227;78;20959;-68
2022/03/14 16:33:50;;;;;;;16.40;11.12;;;;;;;7.86;40.15;102028.79;3587801;78;20998;-67
2022/03/14 16:38:43;;;;;;;20.02;11.85;;;;;;;7.57;40.55;102022.19;3493819;78;21493;-67
2022/03/14 16:43:36;;;;;;;30.82;12.05;;;;;;;7.29;41.10;102017.30;3505123;78;21410;-67
2022/03/14 16:48:29;;;;;;;28.67;11.55;;;;;;;6.99;41.49;102004.55;3550249;78;21345;-67
2022/03/14 16:53:22;;;;;;;36.65;15.35;;;;;;;6.81;42.03;102016.11;3535692;78;20979;-67
2022/03/14 16:58:14;;;;;;;21.27;13.15;;;;;;;6.52;42.32;102006.81;3549343;78;21026;-68
2022/03/14 17:03:06;;;;;;;77.27;53.73;;;;;;;6.40;42.41;102010.52;3529240;78;21880;-67
2022/03/14 17:07:58;;;;;;;59.55;34.80;;;;;;;6.10;42.77;102015.75;3508272;79;20962;-68
2022/03/14 17:12:51;;;;;;;56.65;30.23;;;;;;;5.88;43.35;102021.75;3576511;78;20892;-68
2022/03/14 17:17:43;;;;;;;48.78;27.98;;;;;;;5.54;43.90;102021.10;3560558;79;21163;-67
2022/03/14 17:22:36;;;;;;;62.08;29.12;;;;;;;5.54;43.90;102021.10;3560295;78;21453;-67
2022/03/14 17:27:29;;;;;;;49.25;25.80;;;;;;;5.44;44.37;102026.55;3502791;78;21875;-67
2022/03/14 17:32:21;;;;;;;47.83;23.60;;;;;;;5.23;44.58;102021.88;3584532;78;20987;-66
2022/03/14 17:37:13;;;;;;;45.35;21.77;;;;;;;5.08;44.86;102015.80;3560850;78;21043;-67
2022/03/14 17:42:06;;;;;;;37.13;20.27;;;;;;;4.90;45.17;102012.63;3526925;78;21002;-67
2022/03/14 17:46:58;;;;;;;35.30;18.98;;;;;;;4.72;45.41;102018.84;3483422;78;20971;-67
2022/03/14 17:51:50;;;;;;;48.28;24.05;;;;;;;4.50;45.78;102014.02;3526376;78;20982;-67
2022/03/14 17:56:43;;;;;;;70.05;31.02;;;;;;;4.35;46.15;102013.08;3534476;78;20959;-67
2022/03/14 18:01:36;;;;;;;49.20;25.50;;;;;;;4.22;46.42;102012.71;3553238;78;21026;-67
2022/03/14 18:06:28;;;;;;;49.42;21.40;;;;;;;4.11;46.68;102018.43;3510438;79;21627;-67
2022/03/14 18:11:21;;;;;;;42.62;22.87;;;;;;;3.94;46.98;102016.48;3568473;78;21458;-67
2022/03/14 18:16:14;;;;;;;53.95;22.25;;;;;;;3.80;47.12;102017.75;3585205;78;21698;-67
2022/03/14 18:21:06;;;;;;;54.10;19.30;;;;;;;3.65;47.44;102025.77;3521988;78;20957;-67
2022/03/14 18:26:01;;;;;;;57.10;21.05;;;;;;;3.51;47.60;102038.11;3536948;78;21499;-67
2022/03/14 18:30:53;;;;;;;48.25;20.20;;;;;;;3.32;48.05;102039.42;3511107;79;20970;-67
2022/03/14 18:35:45;;;;;;;54.70;20.32;;;;;;;3.20;48.27;102039.87;3561567;79;20955;-66
2022/03/14 18:40:39;;;;;;;62.17;38.08;;;;;;;3.13;48.78;102040.24;3503352;79;21050;-67
2022/03/14 18:45:32;;;;;;;56.28;26.93;;;;;;;3.02;49.02;102034.00;3499342;79;21512;-66
2022/03/14 18:50:25;;;;;;;58.33;25.57;;;;;;;2.92;48.99;102041.85;3508647;79;20932;-66
2022/03/14 18:55:18;;;;;;;56.77;23.18;;;;;;;2.82;49.42;102042.88;3501322;79;21145;-66
2022/03/14 19:00:11;;;;;;;42.43;20.97;;;;;;;2.70;49.63;102047.19;3453092;79;20923;-66
2022/03/14 19:05:05;;;;;;;38.50;20.75;;;;;;;2.57;49.97;102042.84;3484067;79;21055;-66
2022/03/14 19:09:57;;;;;;;40.17;20.10;;;;;;;2.52;50.12;102048.03;3499503;79;21026;-66
2022/03/14 19:14:53;;;;;;;49.42;20.10;;;;;;;2.38;50.49;102044.52;3511573;79;20998;-66
2022/03/14 19:19:45;;;;;;;43.90;20.35;;;;;;;2.37;50.94;102045.28;3527044;79;20976;-67
2022/03/14 19:24:38;;;;;;;37.95;21.23;;;;;;;2.27;51.10;102050.53;3463359;79;20987;-66
2022/03/14 19:29:31;;;;;;;42.40;21.73;;;;;;;2.21;51.11;102053.95;3521718;79;21836;-66
2022/03/14 19:34:25;;;;;;;33.58;20.57;;;;;;;2.10;51.42;102052.78;3416595;79;20994;-67
2022/03/14 19:39:18;;;;;;;39.75;20.25;;;;;;;2.06;51.63;102052.46;3537119;79;20950;-67
2022/03/14 19:44:15;;;;;;;38.83;20.32;;;;;;;2.04;51.99;102054.91;3440552;79;20966;-67
2022/03/14 19:49:05;;;;;;;37.33;19.12;;;;;;;1.92;51.93;102053.13;3475462;79;20950;-67
2022/03/14 19:53:58;;;;;;;49.00;23.15;;;;;;;1.86;52.06;102059.59;3503238;79;21741;-67
2022/03/14 19:58:50;;;;;;;47.10;22.27;;;;;;;1.80;52.57;102061.69;3506103;78;21547;-67
2022/03/14 20:03:43;;;;;;;53.58;22.62;;;;;;;1.82;52.66;102064.37;3452204;79;21502;-67
2022/03/14 20:08:35;;;;;;;37.55;20.92;;;;;;;1.68;52.58;102077.44;3461326;79;20982;-67
2022/03/14 20:13:28;;;;;;;40.20;21.90;;;;;;;1.60;52.97;102072.14;3536353;79;21057;-67
2022/03/14 20:18:22;;;;;;;38.17;21.80;;;;;;;1.60;53.15;102070.86;3477194;79;21555;-67
2022/03/14 20:23:16;;;;;;;50.78;22.27;;;;;;;1.52;53.54;102072.46;3501126;79;21097;-67
2022/03/14 20:28:09;;;;;;;45.20;21.48;;;;;;;1.49;53.43;102063.25;3508611;78;20986;-67
2022/03/14 20:33:01;;;;;;;45.00;23.22;;;;;;;1.45;53.76;102072.78;3571681;78;20955;-68
2022/03/14 20:37:55;;;;;;;56.35;23.15;;;;;;;1.38;54.00;102073.09;3542976;79;20952;-67
2022/03/14 20:42:47;;;;;;;58.05;23.87;;;;;;;1.36;54.17;102073.73;3529472;79;20998;-67
2022/03/14 20:47:40;;;;;;;45.75;22.93;;;;;;;1.31;54.32;102077.25;3567440;78;20994;-67
2022/03/14 20:52:32;;;;;;;36.50;20.40;;;;;;;1.24;54.23;102073.72;3580526;78;20956;-67
2022/03/14 20:57:24;;;;;;;47.48;24.20;;;;;;;1.13;54.31;102073.78;3526675;78;20978;-67
2022/03/14 21:07:29;;;;;;;42.85;23.83;;;;;;;1.06;54.83;102063.84;3517664;79;22048;-67
2022/03/14 21:12:21;;;;;;;39.63;22.67;;;;;;;0.99;55.10;102067.98;3512057;78;20932;-67
2022/03/14 21:17:17;;;;;;;40.43;21.00;;;;;;;0.95;55.14;102059.56;3569108;78;21002;-67
2022/03/14 21:22:10;;;;;;;35.55;21.12;;;;;;;0.89;55.25;102071.88;3504126;79;21500;-67
2022/03/14 21:27:04;;;;;;;35.78;22.90;;;;;;;0.83;55.60;102062.06;3522377;78;21128;-67
2022/03/14 21:31:57;;;;;;;37.40;21.65;;;;;;;0.79;55.75;102052.72;3517224;79;21092;-67
2022/03/14 21:36:52;;;;;;;36.42;21.73;;;;;;;0.70;55.64;102047.41;3542607;79;21425;-67
2022/03/14 21:41:46;;;;;;;37.83;22.50;;;;;;;0.68;55.94;102050.25;3493197;79;20955;-67
2022/03/14 21:46:38;;;;;;;43.45;21.90;;;;;;;0.63;56.01;102048.98;3542095;78;20932;-67
2022/03/14 21:51:32;;;;;;;37.23;21.93;;;;;;;0.59;56.14;102044.77;3554490;78;22067;-67
2022/03/14 21:56:24;;;;;;;39.45;22.35;;;;;;;0.56;56.23;102041.20;3553620;78;21121;-67
2022/03/14 22:01:17;;;;;;;35.03;19.62;;;;;;;0.46;56.18;102048.04;3503934;78;21074;-67
2022/03/14 22:06:10;;;;;;;38.10;21.80;;;;;;;0.46;56.50;102037.41;3540783;79;20954;-67
2022/03/14 22:11:03;;;;;;;33.38;21.10;;;;;;;0.46;56.64;102033.97;3517841;79;20940;-67
2022/03/14 22:15:56;;;;;;;36.53;22.42;;;;;;;0.38;56.53;102032.09;3521760;79;21581;-67
2022/03/14 22:20:50;;;;;;;38.23;21.07;;;;;;;0.31;56.80;102031.09;3476457;79;21419;-67
2022/03/14 22:25:42;;;;;;;36.70;20.70;;;;;;;0.24;56.83;102020.75;3504349;78;21030;-68